sensor_id;sensor_type;location;lat;lon;timestamp;pressure;altitude;pressure_sealevel;temperature
59339;BMP280;45117;50.960;5.500;2022-07-23T00:00:05;101003.69;;;17.42
59339;BMP280;45117;50.960;5.500;2022-07-23T00:02:32;100995.66;;;17.39
59339;BMP280;45117;50.960;5.500;2022-07-23T00:05:00;100991.56;;;17.34
59339;BMP280;45117;50.960;5.500;2022-07-23T00:07:27;100991.22;;;17.32
59339;BMP280;45117;50.960;5.500;2022-07-23T00:09:53;100993.63;;;17.30
59339;BMP280;45117;50.960;5.500;2022-07-23T00:12:20;100992.19;;;17.26
59339;BMP280;45117;50.960;5.500;2022-07-23T00:14:47;100993.09;;;17.23
59339;BMP280;45117;50.960;5.500;2022-07-23T00:17:13;100996.22;;;17.21
59339;BMP280;45117;50.960;5.500;2022-07-23T00:19:40;100992.44;;;17.19
59339;BMP280;45117;50.960;5.500;2022-07-23T00:22:08;100992.53;;;17.15
59339;BMP280;45117;50.960;5.500;2022-07-23T00:24:34;100996.16;;;17.12
59339;BMP280;45117;50.960;5.500;2022-07-23T00:27:01;101000.50;;;17.09
59339;BMP280;45117;50.960;5.500;2022-07-23T00:29:27;100998.22;;;17.08
59339;BMP280;45117;50.960;5.500;2022-07-23T00:31:54;100994.09;;;17.03
59339;BMP280;45117;50.960;5.500;2022-07-23T00:34:21;100996.47;;;17.01
59339;BMP280;45117;50.960;5.500;2022-07-23T00:36:47;100987.69;;;16.97
59339;BMP280;45117;50.960;5.500;2022-07-23T00:39:15;100992.03;;;16.95
59339;BMP280;45117;50.960;5.500;2022-07-23T00:41:42;100984.00;;;16.91
59339;BMP280;45117;50.960;5.500;2022-07-23T00:44:16;100986.84;;;16.88
59339;BMP280;45117;50.960;5.500;2022-07-23T00:46:46;100986.19;;;16.83
59339;BMP280;45117;50.960;5.500;2022-07-23T00:49:13;100975.00;;;16.81
59339;BMP280;45117;50.960;5.500;2022-07-23T00:51:39;100975.13;;;16.78
59339;BMP280;45117;50.960;5.500;2022-07-23T00:54:06;100976.72;;;16.75
59339;BMP280;45117;50.960;5.500;2022-07-23T00:56:34;100972.19;;;16.72
59339;BMP280;45117;50.960;5.500;2022-07-23T00:59:01;100978.44;;;16.69
59339;BMP280;45117;50.960;5.500;2022-07-23T01:01:28;100979.75;;;16.65
59339;BMP280;45117;50.960;5.500;2022-07-23T01:03:54;100979.88;;;16.61
59339;BMP280;45117;50.960;5.500;2022-07-23T01:06:21;100983.88;;;16.57
59339;BMP280;45117;50.960;5.500;2022-07-23T01:08:48;100976.59;;;16.53
59339;BMP280;45117;50.960;5.500;2022-07-23T01:11:14;100978.69;;;16.49
59339;BMP280;45117;50.960;5.500;2022-07-23T01:13:42;100981.06;;;16.47
59339;BMP280;45117;50.960;5.500;2022-07-23T01:16:09;100981.50;;;16.46
59339;BMP280;45117;50.960;5.500;2022-07-23T01:18:36;100970.00;;;16.42
59339;BMP280;45117;50.960;5.500;2022-07-23T01:21:02;100972.34;;;16.40
59339;BMP280;45117;50.960;5.500;2022-07-23T01:23:30;100967.81;;;16.37
59339;BMP280;45117;50.960;5.500;2022-07-23T01:25:57;100965.63;;;16.32
59339;BMP280;45117;50.960;5.500;2022-07-23T01:28:24;100963.34;;;16.30
59339;BMP280;45117;50.960;5.500;2022-07-23T01:30:50;100962.28;;;16.28
59339;BMP280;45117;50.960;5.500;2022-07-23T01:33:17;100951.53;;;16.24
59339;BMP280;45117;50.960;5.500;2022-07-23T01:35:43;100961.25;;;16.21
59339;BMP280;45117;50.960;5.500;2022-07-23T01:38:10;100969.09;;;16.19
59339;BMP280;45117;50.960;5.500;2022-07-23T01:40:38;100967.22;;;16.16
59339;BMP280;45117;50.960;5.500;2022-07-23T01:43:04;100966.13;;;16.14
59339;BMP280;45117;50.960;5.500;2022-07-23T01:45:31;100958.44;;;16.12
59339;BMP280;45117;50.960;5.500;2022-07-23T01:47:57;100955.81;;;16.09
59339;BMP280;45117;50.960;5.500;2022-07-23T01:50:24;100958.22;;;16.07
59339;BMP280;45117;50.960;5.500;2022-07-23T01:52:50;100960.59;;;16.05
59339;BMP280;45117;50.960;5.500;2022-07-23T01:55:17;100957.97;;;16.01
59339;BMP280;45117;50.960;5.500;2022-07-23T01:57:45;100958.81;;;15.98
59339;BMP280;45117;50.960;5.500;2022-07-23T02:00:12;100962.72;;;15.97
59339;BMP280;45117;50.960;5.500;2022-07-23T02:02:39;100956.66;;;15.93
59339;BMP280;45117;50.960;5.500;2022-07-23T02:05:06;100957.50;;;15.90
59339;BMP280;45117;50.960;5.500;2022-07-23T02:07:33;100959.13;;;15.87
59339;BMP280;45117;50.960;5.500;2022-07-23T02:09:59;100956.84;;;15.86
59339;BMP280;45117;50.960;5.500;2022-07-23T02:12:26;100953.47;;;15.82
59339;BMP280;45117;50.960;5.500;2022-07-23T02:14:54;100954.31;;;15.79
59339;BMP280;45117;50.960;5.500;2022-07-23T02:17:20;100957.47;;;15.77
59339;BMP280;45117;50.960;5.500;2022-07-23T02:19:47;100952.13;;;15.74
59339;BMP280;45117;50.960;5.500;2022-07-23T02:22:13;100951.78;;;15.72
59339;BMP280;45117;50.960;5.500;2022-07-23T02:24:40;100949.91;;;15.69
59339;BMP280;45117;50.960;5.500;2022-07-23T02:27:06;100945.41;;;15.66
59339;BMP280;45117;50.960;5.500;2022-07-23T02:29:33;100945.78;;;15.64
59339;BMP280;45117;50.960;5.500;2022-07-23T02:32:01;100944.69;;;15.61
59339;BMP280;45117;50.960;5.500;2022-07-23T02:34:27;100949.78;;;15.59
59339;BMP280;45117;50.960;5.500;2022-07-23T02:36:54;100948.44;;;15.51
59339;BMP280;45117;50.960;5.500;2022-07-23T02:39:20;100955.72;;;15.54
59339;BMP280;45117;50.960;5.500;2022-07-23T02:41:47;100955.78;;;15.51
59339;BMP280;45117;50.960;5.500;2022-07-23T02:44:16;100957.72;;;15.50
59339;BMP280;45117;50.960;5.500;2022-07-23T02:46:43;100958.19;;;15.49
59339;BMP280;45117;50.960;5.500;2022-07-23T02:49:11;100952.41;;;15.47
59339;BMP280;45117;50.960;5.500;2022-07-23T02:51:37;100954.06;;;15.44
59339;BMP280;45117;50.960;5.500;2022-07-23T02:54:04;100960.31;;;15.41
59339;BMP280;45117;50.960;5.500;2022-07-23T02:56:31;100958.44;;;15.38
59339;BMP280;45117;50.960;5.500;2022-07-23T02:58:57;100961.56;;;15.37
59339;BMP280;45117;50.960;5.500;2022-07-23T03:01:24;100958.22;;;15.32
59339;BMP280;45117;50.960;5.500;2022-07-23T03:03:51;100957.84;;;15.30
59339;BMP280;45117;50.960;5.500;2022-07-23T03:06:19;100966.38;;;15.29
59339;BMP280;45117;50.960;5.500;2022-07-23T03:08:45;100963.00;;;15.25
59339;BMP280;45117;50.960;5.500;2022-07-23T03:11:12;100969.59;;;15.24
59339;BMP280;45117;50.960;5.500;2022-07-23T03:13:39;100962.34;;;15.21
59339;BMP280;45117;50.960;5.500;2022-07-23T03:16:06;100972.03;;;15.18
59339;BMP280;45117;50.960;5.500;2022-07-23T03:18:33;100974.41;;;15.16
59339;BMP280;45117;50.960;5.500;2022-07-23T03:21:00;100976.00;;;15.14
59339;BMP280;45117;50.960;5.500;2022-07-23T03:23:28;100968.75;;;15.11
59339;BMP280;45117;50.960;5.500;2022-07-23T03:25:54;100973.81;;;15.09
59339;BMP280;45117;50.960;5.500;2022-07-23T03:28:21;100973.50;;;15.07
59339;BMP280;45117;50.960;5.500;2022-07-23T03:30:47;100968.94;;;15.03
59339;BMP280;45117;50.960;5.500;2022-07-23T03:33:14;100965.84;;;15.01
59339;BMP280;45117;50.960;5.500;2022-07-23T03:35:41;100972.88;;;14.99
59339;BMP280;45117;50.960;5.500;2022-07-23T03:38:08;100969.06;;;14.96
59339;BMP280;45117;50.960;5.500;2022-07-23T03:40:36;100969.50;;;14.95
59339;BMP280;45117;50.960;5.500;2022-07-23T03:43:02;100969.16;;;14.93
59339;BMP280;45117;50.960;5.500;2022-07-23T03:45:29;100973.03;;;14.92
59339;BMP280;45117;50.960;5.500;2022-07-23T03:47:56;100974.22;;;14.91
59339;BMP280;45117;50.960;5.500;2022-07-23T03:50:22;100976.56;;;14.89
59339;BMP280;45117;50.960;5.500;2022-07-23T03:52:49;100980.06;;;14.89
59339;BMP280;45117;50.960;5.500;2022-07-23T03:55:15;100990.09;;;14.89
59339;BMP280;45117;50.960;5.500;2022-07-23T03:57:43;100986.31;;;14.86
59339;BMP280;45117;50.960;5.500;2022-07-23T04:00:11;100986.31;;;14.86
59339;BMP280;45117;50.960;5.500;2022-07-23T04:02:38;100987.81;;;14.87
59339;BMP280;45117;50.960;5.500;2022-07-23T04:05:06;100991.72;;;14.86
59339;BMP280;45117;50.960;5.500;2022-07-23T04:07:33;100992.91;;;14.85
59339;BMP280;45117;50.960;5.500;2022-07-23T04:09:59;100996.38;;;14.86
59339;BMP280;45117;50.960;5.500;2022-07-23T04:12:26;101003.28;;;14.87
59339;BMP280;45117;50.960;5.500;2022-07-23T04:14:54;101002.84;;;14.88
59339;BMP280;45117;50.960;5.500;2022-07-23T04:17:20;101001.69;;;14.89
59339;BMP280;45117;50.960;5.500;2022-07-23T04:19:47;101008.63;;;14.90
59339;BMP280;45117;50.960;5.500;2022-07-23T04:22:14;101008.19;;;14.92
59339;BMP280;45117;50.960;5.500;2022-07-23T04:24:40;101017.41;;;14.94
59339;BMP280;45117;50.960;5.500;2022-07-23T04:27:07;101020.81;;;14.98
59339;BMP280;45117;50.960;5.500;2022-07-23T04:29:33;101010.69;;;15.02
59339;BMP280;45117;50.960;5.500;2022-07-23T04:32:01;101014.81;;;15.07
59339;BMP280;45117;50.960;5.500;2022-07-23T04:34:28;101010.06;;;15.11
59339;BMP280;45117;50.960;5.500;2022-07-23T04:36:54;101009.25;;;15.14
59339;BMP280;45117;50.960;5.500;2022-07-23T04:39:21;101012.97;;;15.20
59339;BMP280;45117;50.960;5.500;2022-07-23T04:41:48;101015.16;;;15.25
59339;BMP280;45117;50.960;5.500;2022-07-23T04:44:14;101014.66;;;15.30
59339;BMP280;45117;50.960;5.500;2022-07-23T04:46:41;101012.97;;;15.37
59339;BMP280;45117;50.960;5.500;2022-07-23T04:49:09;101019.81;;;15.41
59339;BMP280;45117;50.960;5.500;2022-07-23T04:51:35;101023.91;;;15.49
59339;BMP280;45117;50.960;5.500;2022-07-23T04:54:02;101022.19;;;15.55
59339;BMP280;45117;50.960;5.500;2022-07-23T04:56:29;101019.66;;;15.65
59339;BMP280;45117;50.960;5.500;2022-07-23T04:58:55;101019.91;;;15.70
59339;BMP280;45117;50.960;5.500;2022-07-23T05:01:22;101021.66;;;15.77
59339;BMP280;45117;50.960;5.500;2022-07-23T05:03:48;101031.38;;;15.90
59339;BMP280;45117;50.960;5.500;2022-07-23T05:06:16;101035.69;;;16.17
59339;BMP280;45117;50.960;5.500;2022-07-23T05:08:43;101041.41;;;16.35
59339;BMP280;45117;50.960;5.500;2022-07-23T05:11:09;101034.97;;;16.58
59339;BMP280;45117;50.960;5.500;2022-07-23T05:13:36;101033.69;;;17.13
59339;BMP280;45117;50.960;5.500;2022-07-23T05:16:03;101056.03;;;17.77
59339;BMP280;45117;50.960;5.500;2022-07-23T05:18:29;101051.72;;;19.26
59339;BMP280;45117;50.960;5.500;2022-07-23T05:20:56;101053.03;;;20.40
59339;BMP280;45117;50.960;5.500;2022-07-23T05:23:24;101052.72;;;21.28
59339;BMP280;45117;50.960;5.500;2022-07-23T05:25:50;101050.09;;;21.87
59339;BMP280;45117;50.960;5.500;2022-07-23T05:28:17;101057.91;;;22.73
59339;BMP280;45117;50.960;5.500;2022-07-23T05:30:43;101059.44;;;23.61
59339;BMP280;45117;50.960;5.500;2022-07-23T05:33:10;101067.25;;;24.25
59339;BMP280;45117;50.960;5.500;2022-07-23T05:35:38;101063.84;;;24.90
59339;BMP280;45117;50.960;5.500;2022-07-23T05:38:04;101069.47;;;25.46
59339;BMP280;45117;50.960;5.500;2022-07-23T05:40:32;101077.25;;;26.20
59339;BMP280;45117;50.960;5.500;2022-07-23T05:42:59;101081.06;;;26.86
59339;BMP280;45117;50.960;5.500;2022-07-23T05:45:25;101085.84;;;27.32
59339;BMP280;45117;50.960;5.500;2022-07-23T05:47:52;101081.28;;;27.70
59339;BMP280;45117;50.960;5.500;2022-07-23T05:50:18;101083.94;;;28.05
59339;BMP280;45117;50.960;5.500;2022-07-23T05:52:46;101078.47;;;28.48
59339;BMP280;45117;50.960;5.500;2022-07-23T05:55:12;101074.16;;;28.90
59339;BMP280;45117;50.960;5.500;2022-07-23T05:57:41;101073.47;;;29.35
59339;BMP280;45117;50.960;5.500;2022-07-23T06:00:09;101070.81;;;29.75
59339;BMP280;45117;50.960;5.500;2022-07-23T06:02:36;101066.53;;;30.13
59339;BMP280;45117;50.960;5.500;2022-07-23T06:05:03;101071.00;;;30.42
59339;BMP280;45117;50.960;5.500;2022-07-23T06:07:30;101068.91;;;30.69
59339;BMP280;45117;50.960;5.500;2022-07-23T06:09:56;101081.72;;;30.93
59339;BMP280;45117;50.960;5.500;2022-07-23T06:12:23;101074.38;;;31.16
59339;BMP280;45117;50.960;5.500;2022-07-23T06:14:52;101078.44;;;31.15
59339;BMP280;45117;50.960;5.500;2022-07-23T06:17:18;101085.94;;;31.07
59339;BMP280;45117;50.960;5.500;2022-07-23T06:19:45;101070.94;;;30.69
59339;BMP280;45117;50.960;5.500;2022-07-23T06:22:12;101065.56;;;30.37
59339;BMP280;45117;50.960;5.500;2022-07-23T06:24:38;101060.88;;;30.19
59339;BMP280;45117;50.960;5.500;2022-07-23T06:27:05;101060.59;;;30.09
59339;BMP280;45117;50.960;5.500;2022-07-23T06:29:31;101074.00;;;30.05
59339;BMP280;45117;50.960;5.500;2022-07-23T06:31:59;101073.59;;;29.75
59339;BMP280;45117;50.960;5.500;2022-07-23T06:34:26;101074.31;;;29.62
59339;BMP280;45117;50.960;5.500;2022-07-23T06:36:52;101069.94;;;29.35
59339;BMP280;45117;50.960;5.500;2022-07-23T06:39:19;101067.47;;;29.18
59339;BMP280;45117;50.960;5.500;2022-07-23T06:41:45;101071.69;;;28.87
59339;BMP280;45117;50.960;5.500;2022-07-23T06:44:12;101081.41;;;28.56
59339;BMP280;45117;50.960;5.500;2022-07-23T06:46:38;101086.16;;;28.37
59339;BMP280;45117;50.960;5.500;2022-07-23T06:49:06;101082.47;;;28.29
59339;BMP280;45117;50.960;5.500;2022-07-23T06:51:33;101088.72;;;28.29
59339;BMP280;45117;50.960;5.500;2022-07-23T06:54:00;101090.53;;;28.27
59339;BMP280;45117;50.960;5.500;2022-07-23T06:56:26;101086.22;;;28.31
59339;BMP280;45117;50.960;5.500;2022-07-23T06:58:53;101090.31;;;28.25
59339;BMP280;45117;50.960;5.500;2022-07-23T07:01:19;101089.91;;;28.15
59339;BMP280;45117;50.960;5.500;2022-07-23T07:03:46;101097.91;;;28.18
59339;BMP280;45117;50.960;5.500;2022-07-23T07:06:15;101091.50;;;28.29
59339;BMP280;45117;50.960;5.500;2022-07-23T07:08:41;101094.53;;;28.50
59339;BMP280;45117;50.960;5.500;2022-07-23T07:11:09;101093.06;;;28.68
59339;BMP280;45117;50.960;5.500;2022-07-23T07:13:36;101094.41;;;28.80
59339;BMP280;45117;50.960;5.500;2022-07-23T07:16:02;101093.06;;;28.86
59339;BMP280;45117;50.960;5.500;2022-07-23T07:18:29;101089.03;;;28.87
59339;BMP280;45117;50.960;5.500;2022-07-23T07:20:56;101090.53;;;28.88
59339;BMP280;45117;50.960;5.500;2022-07-23T07:23:24;101097.00;;;28.72
59339;BMP280;45117;50.960;5.500;2022-07-23T07:25:51;101094.66;;;28.82
59339;BMP280;45117;50.960;5.500;2022-07-23T07:28:17;101091.66;;;28.99
59339;BMP280;45117;50.960;5.500;2022-07-23T07:30:44;101098.84;;;29.07
59339;BMP280;45117;50.960;5.500;2022-07-23T07:33:10;101104.69;;;29.17
59339;BMP280;45117;50.960;5.500;2022-07-23T07:35:37;101099.16;;;29.36
59339;BMP280;45117;50.960;5.500;2022-07-23T07:38:04;101106.56;;;29.59
59339;BMP280;45117;50.960;5.500;2022-07-23T07:40:31;101110.47;;;29.83
59339;BMP280;45117;50.960;5.500;2022-07-23T07:42:58;101121.97;;;30.00
59339;BMP280;45117;50.960;5.500;2022-07-23T07:45:25;101114.97;;;30.12
59339;BMP280;45117;50.960;5.500;2022-07-23T07:47:52;101122.72;;;30.14
59339;BMP280;45117;50.960;5.500;2022-07-23T07:50:19;101128.94;;;30.07
59339;BMP280;45117;50.960;5.500;2022-07-23T07:52:45;101113.97;;;30.10
59339;BMP280;45117;50.960;5.500;2022-07-23T07:55:12;101117.41;;;30.16
59339;BMP280;45117;50.960;5.500;2022-07-23T07:57:40;101117.72;;;30.25
59339;BMP280;45117;50.960;5.500;2022-07-23T08:00:08;101122.09;;;30.34
59339;BMP280;45117;50.960;5.500;2022-07-23T08:02:42;101111.84;;;30.42
59339;BMP280;45117;50.960;5.500;2022-07-23T08:05:09;101116.00;;;30.49
59339;BMP280;45117;50.960;5.500;2022-07-23T08:07:36;101121.31;;;30.60
59339;BMP280;45117;50.960;5.500;2022-07-23T08:10:05;101119.38;;;30.68
59339;BMP280;45117;50.960;5.500;2022-07-23T08:12:40;101114.88;;;30.78
59339;BMP280;45117;50.960;5.500;2022-07-23T08:15:08;101133.53;;;30.91
59339;BMP280;45117;50.960;5.500;2022-07-23T08:17:35;101120.91;;;31.03
59339;BMP280;45117;50.960;5.500;2022-07-23T08:20:02;101130.75;;;31.11
59339;BMP280;45117;50.960;5.500;2022-07-23T08:22:41;101128.19;;;31.13
59339;BMP280;45117;50.960;5.500;2022-07-23T08:25:08;101123.59;;;31.16
59339;BMP280;45117;50.960;5.500;2022-07-23T08:27:35;101123.25;;;31.19
59339;BMP280;45117;50.960;5.500;2022-07-23T08:30:03;101125.69;;;31.23
59339;BMP280;45117;50.960;5.500;2022-07-23T08:32:30;101124.81;;;31.28
59339;BMP280;45117;50.960;5.500;2022-07-23T08:34:56;101133.00;;;31.34
59339;BMP280;45117;50.960;5.500;2022-07-23T08:37:23;101135.13;;;31.41
59339;BMP280;45117;50.960;5.500;2022-07-23T08:39:50;101136.69;;;31.49
59339;BMP280;45117;50.960;5.500;2022-07-23T08:42:18;101131.84;;;31.50
59339;BMP280;45117;50.960;5.500;2022-07-23T08:44:45;101137.50;;;31.57
59339;BMP280;45117;50.960;5.500;2022-07-23T08:47:14;101150.34;;;31.68
59339;BMP280;45117;50.960;5.500;2022-07-23T08:49:41;101145.00;;;31.78
59339;BMP280;45117;50.960;5.500;2022-07-23T08:52:10;101144.69;;;31.81
59339;BMP280;45117;50.960;5.500;2022-07-23T08:54:37;101148.69;;;31.73
59339;BMP280;45117;50.960;5.500;2022-07-23T08:57:04;101148.50;;;31.71
59339;BMP280;45117;50.960;5.500;2022-07-23T08:59:31;101152.09;;;31.79
59339;BMP280;45117;50.960;5.500;2022-07-23T09:01:57;101145.06;;;31.85
59339;BMP280;45117;50.960;5.500;2022-07-23T09:04:26;101147.50;;;31.89
59339;BMP280;45117;50.960;5.500;2022-07-23T09:06:53;101151.25;;;31.91
59339;BMP280;45117;50.960;5.500;2022-07-23T09:09:21;101145.34;;;31.95
59339;BMP280;45117;50.960;5.500;2022-07-23T09:11:48;101141.56;;;31.85
59339;BMP280;45117;50.960;5.500;2022-07-23T09:14:36;101139.84;;;31.74
59339;BMP280;45117;50.960;5.500;2022-07-23T09:17:11;101143.75;;;31.79
59339;BMP280;45117;50.960;5.500;2022-07-23T09:19:41;101148.75;;;31.80
59339;BMP280;45117;50.960;5.500;2022-07-23T09:22:21;101144.28;;;31.77
59339;BMP280;45117;50.960;5.500;2022-07-23T09:25:04;101140.41;;;31.80
59339;BMP280;45117;50.960;5.500;2022-07-23T09:27:46;101141.03;;;31.86
59339;BMP280;45117;50.960;5.500;2022-07-23T09:30:13;101143.31;;;31.95
59339;BMP280;45117;50.960;5.500;2022-07-23T09:32:40;101138.94;;;32.08
59339;BMP280;45117;50.960;5.500;2022-07-23T09:35:08;101131.75;;;32.12
59339;BMP280;45117;50.960;5.500;2022-07-23T09:37:35;101132.25;;;32.11
59339;BMP280;45117;50.960;5.500;2022-07-23T09:40:06;101128.22;;;32.12
59339;BMP280;45117;50.960;5.500;2022-07-23T09:42:33;101131.56;;;32.18
59339;BMP280;45117;50.960;5.500;2022-07-23T09:45:01;101135.81;;;32.19
59339;BMP280;45117;50.960;5.500;2022-07-23T09:47:28;101135.53;;;32.02
59339;BMP280;45117;50.960;5.500;2022-07-23T09:50:00;101139.63;;;32.01
59339;BMP280;45117;50.960;5.500;2022-07-23T09:52:32;101144.28;;;32.06
59339;BMP280;45117;50.960;5.500;2022-07-23T09:55:01;101146.56;;;32.15
59339;BMP280;45117;50.960;5.500;2022-07-23T09:57:28;101148.66;;;32.22
59339;BMP280;45117;50.960;5.500;2022-07-23T09:59:58;101141.38;;;32.19
59339;BMP280;45117;50.960;5.500;2022-07-23T10:02:27;101141.25;;;32.24
59339;BMP280;45117;50.960;5.500;2022-07-23T10:04:54;101135.38;;;32.35
59339;BMP280;45117;50.960;5.500;2022-07-23T10:07:22;101139.50;;;32.50
59339;BMP280;45117;50.960;5.500;2022-07-23T10:09:51;101145.13;;;32.65
59339;BMP280;45117;50.960;5.500;2022-07-23T10:12:19;101138.09;;;32.79
59339;BMP280;45117;50.960;5.500;2022-07-23T10:15:00;101129.78;;;32.87
59339;BMP280;45117;50.960;5.500;2022-07-23T10:17:28;101131.84;;;32.94
59339;BMP280;45117;50.960;5.500;2022-07-23T10:19:54;101131.09;;;33.01
59339;BMP280;45117;50.960;5.500;2022-07-23T10:22:24;101125.19;;;33.04
59339;BMP280;45117;50.960;5.500;2022-07-23T10:25:08;101130.38;;;33.08
59339;BMP280;45117;50.960;5.500;2022-07-23T10:27:51;101132.78;;;33.11
59339;BMP280;45117;50.960;5.500;2022-07-23T10:30:22;101130.56;;;33.10
59339;BMP280;45117;50.960;5.500;2022-07-23T10:33:01;101126.84;;;33.07
59339;BMP280;45117;50.960;5.500;2022-07-23T10:35:37;101132.97;;;33.13
59339;BMP280;45117;50.960;5.500;2022-07-23T10:38:11;101134.25;;;33.20
59339;BMP280;45117;50.960;5.500;2022-07-23T10:40:53;101122.56;;;33.29
59339;BMP280;45117;50.960;5.500;2022-07-23T10:43:20;101136.31;;;33.35
59339;BMP280;45117;50.960;5.500;2022-07-23T10:45:46;101130.38;;;33.31
59339;BMP280;45117;50.960;5.500;2022-07-23T10:48:14;101132.22;;;33.28
59339;BMP280;45117;50.960;5.500;2022-07-23T10:50:43;101135.56;;;33.27
59339;BMP280;45117;50.960;5.500;2022-07-23T10:53:12;101123.69;;;33.26
59339;BMP280;45117;50.960;5.500;2022-07-23T10:55:43;101123.69;;;33.26
59339;BMP280;45117;50.960;5.500;2022-07-23T10:58:17;101123.69;;;33.26
59339;BMP280;45117;50.960;5.500;2022-07-23T11:00:44;101131.84;;;33.32
59339;BMP280;45117;50.960;5.500;2022-07-23T11:03:32;101129.28;;;33.41
59339;BMP280;45117;50.960;5.500;2022-07-23T11:06:02;101127.97;;;33.50
59339;BMP280;45117;50.960;5.500;2022-07-23T11:08:29;101122.94;;;33.64
59339;BMP280;45117;50.960;5.500;2022-07-23T11:11:08;101124.59;;;33.67
59339;BMP280;45117;50.960;5.500;2022-07-23T11:13:41;101126.66;;;33.59
59339;BMP280;45117;50.960;5.500;2022-07-23T11:16:13;101125.72;;;33.56
59339;BMP280;45117;50.960;5.500;2022-07-23T11:19:06;101120.13;;;33.64
59339;BMP280;45117;50.960;5.500;2022-07-23T11:21:47;101126.97;;;33.78
59339;BMP280;45117;50.960;5.500;2022-07-23T11:24:21;101116.00;;;33.87
59339;BMP280;45117;50.960;5.500;2022-07-23T11:27:00;101118.00;;;33.94
59339;BMP280;45117;50.960;5.500;2022-07-23T11:29:44;101120.63;;;33.92
59339;BMP280;45117;50.960;5.500;2022-07-23T11:32:44;101115.94;;;34.03
59339;BMP280;45117;50.960;5.500;2022-07-23T11:35:25;101112.38;;;34.17
59339;BMP280;45117;50.960;5.500;2022-07-23T11:37:53;101105.94;;;34.32
59339;BMP280;45117;50.960;5.500;2022-07-23T11:40:24;101108.81;;;34.49
59339;BMP280;45117;50.960;5.500;2022-07-23T11:42:53;101108.44;;;34.53
59339;BMP280;45117;50.960;5.500;2022-07-23T11:45:22;101099.72;;;34.49
59339;BMP280;45117;50.960;5.500;2022-07-23T11:47:49;101099.38;;;34.45
59339;BMP280;45117;50.960;5.500;2022-07-23T11:50:15;101101.59;;;34.46
59339;BMP280;45117;50.960;5.500;2022-07-23T11:52:42;101098.25;;;34.48
59339;BMP280;45117;50.960;5.500;2022-07-23T11:55:10;101101.53;;;34.54
59339;BMP280;45117;50.960;5.500;2022-07-23T11:57:38;101104.50;;;34.56
59339;BMP280;45117;50.960;5.500;2022-07-23T12:00:07;101099.19;;;34.50
59339;BMP280;45117;50.960;5.500;2022-07-23T12:02:36;101096.59;;;34.45
59339;BMP280;45117;50.960;5.500;2022-07-23T12:05:03;101099.59;;;34.39
59339;BMP280;45117;50.960;5.500;2022-07-23T12:07:33;101096.28;;;34.33
59339;BMP280;45117;50.960;5.500;2022-07-23T12:10:01;101097.78;;;34.26
59339;BMP280;45117;50.960;5.500;2022-07-23T12:12:35;101092.59;;;34.30
59339;BMP280;45117;50.960;5.500;2022-07-23T12:15:06;101101.13;;;34.32
59339;BMP280;45117;50.960;5.500;2022-07-23T12:17:34;101097.38;;;34.38
59339;BMP280;45117;50.960;5.500;2022-07-23T12:20:04;101100.34;;;34.40
59339;BMP280;45117;50.960;5.500;2022-07-23T12:22:37;101097.88;;;34.44
59339;BMP280;45117;50.960;5.500;2022-07-23T12:25:06;101099.03;;;34.41
59339;BMP280;45117;50.960;5.500;2022-07-23T12:27:34;101095.72;;;34.34
59339;BMP280;45117;50.960;5.500;2022-07-23T12:30:26;101097.03;;;34.33
59339;BMP280;45117;50.960;5.500;2022-07-23T12:32:54;101097.25;;;34.28
59339;BMP280;45117;50.960;5.500;2022-07-23T12:35:23;101087.91;;;34.33
59339;BMP280;45117;50.960;5.500;2022-07-23T12:37:51;101089.53;;;34.36
59339;BMP280;45117;50.960;5.500;2022-07-23T12:40:25;101087.69;;;34.39
59339;BMP280;45117;50.960;5.500;2022-07-23T12:42:56;101080.97;;;34.42
59339;BMP280;45117;50.960;5.500;2022-07-23T12:45:23;101082.63;;;34.45
59339;BMP280;45117;50.960;5.500;2022-07-23T12:47:59;101082.88;;;34.31
59339;BMP280;45117;50.960;5.500;2022-07-23T12:50:37;101088.38;;;34.14
59339;BMP280;45117;50.960;5.500;2022-07-23T12:53:06;101095.31;;;33.98
59339;BMP280;45117;50.960;5.500;2022-07-23T12:55:33;101091.59;;;33.95
59339;BMP280;45117;50.960;5.500;2022-07-23T12:58:04;101086.94;;;33.98
59339;BMP280;45117;50.960;5.500;2022-07-23T13:00:31;101086.56;;;34.02
59339;BMP280;45117;50.960;5.500;2022-07-23T13:02:57;101091.16;;;34.14
59339;BMP280;45117;50.960;5.500;2022-07-23T13:05:24;101092.22;;;34.26
59339;BMP280;45117;50.960;5.500;2022-07-23T13:07:52;101097.78;;;34.26
59339;BMP280;45117;50.960;5.500;2022-07-23T13:10:18;101094.09;;;34.16
59339;BMP280;45117;50.960;5.500;2022-07-23T13:12:45;101089.31;;;34.09
59339;BMP280;45117;50.960;5.500;2022-07-23T13:15:12;101091.28;;;33.84
59339;BMP280;45117;50.960;5.500;2022-07-23T13:17:38;101091.53;;;33.63
59339;BMP280;45117;50.960;5.500;2022-07-23T13:20:06;101101.56;;;33.59
59339;BMP280;45117;50.960;5.500;2022-07-23T13:22:33;101089.84;;;33.52
59339;BMP280;45117;50.960;5.500;2022-07-23T13:25:01;101092.81;;;33.54
59339;BMP280;45117;50.960;5.500;2022-07-23T13:27:27;101091.31;;;33.69
59339;BMP280;45117;50.960;5.500;2022-07-23T13:29:54;101085.88;;;33.86
59339;BMP280;45117;50.960;5.500;2022-07-23T13:32:20;101081.00;;;33.94
59339;BMP280;45117;50.960;5.500;2022-07-23T13:34:47;101088.44;;;33.99
59339;BMP280;45117;50.960;5.500;2022-07-23T13:37:13;101080.38;;;34.11
59339;BMP280;45117;50.960;5.500;2022-07-23T13:39:40;101081.09;;;34.19
59339;BMP280;45117;50.960;5.500;2022-07-23T13:42:08;101083.72;;;34.17
59339;BMP280;45117;50.960;5.500;2022-07-23T13:44:35;101085.78;;;34.09
59339;BMP280;45117;50.960;5.500;2022-07-23T13:47:01;101075.63;;;33.96
59339;BMP280;45117;50.960;5.500;2022-07-23T13:49:28;101073.94;;;33.93
59339;BMP280;45117;50.960;5.500;2022-07-23T13:51:54;101068.41;;;33.78
59339;BMP280;45117;50.960;5.500;2022-07-23T13:54:22;101075.16;;;33.60
59339;BMP280;45117;50.960;5.500;2022-07-23T13:56:48;101068.34;;;33.45
59339;BMP280;45117;50.960;5.500;2022-07-23T13:59:16;101065.34;;;33.59
59339;BMP280;45117;50.960;5.500;2022-07-23T14:01:43;101065.63;;;33.78